createdAt,value
2017-10-29T00:00:05.475Z,3.1
2017-10-29T00:01:06.202Z,3.4
2017-10-29T00:02:06.931Z,3.6
2017-10-29T00:03:07.662Z,3.4
2017-10-29T00:04:08.417Z,2.8
2017-10-29T00:05:09.132Z,3.2
2017-10-29T00:06:09.932Z,3.1
2017-10-29T00:07:10.702Z,3.2
2017-10-29T00:08:11.421Z,3.2
2017-10-29T00:09:12.171Z,2.8
2017-10-29T00:10:12.962Z,2.7
2017-10-29T00:11:13.992Z,2.8
2017-10-29T00:12:14.723Z,2.8
2017-10-29T00:13:15.459Z,6.0
2017-10-29T00:14:16.212Z,5.4
2017-10-29T00:15:16.936Z,3.7
2017-10-29T00:16:17.767Z,3.2
2017-10-29T00:17:18.541Z,3.8
2017-10-29T00:18:19.273Z,3.5
2017-10-29T00:19:20.080Z,4.3
2017-10-29T00:20:20.810Z,3.8
2017-10-29T00:21:21.657Z,4.8
2017-10-29T00:22:22.392Z,4.6
2017-10-29T00:23:23.122Z,4.5
2017-10-29T00:24:23.853Z,15.1
2017-10-29T00:25:24.661Z,4.8
2017-10-29T00:26:26.101Z,4.6
2017-10-29T00:27:27.806Z,4.5
2017-10-29T00:28:28.702Z,4.6
2017-10-29T00:29:29.435Z,4.7
2017-10-29T00:30:30.236Z,4.3
2017-10-29T00:31:31.018Z,4.8
2017-10-29T00:32:31.752Z,4.8
2017-10-29T00:33:32.492Z,5.2
2017-10-29T00:34:33.221Z,4.5
2017-10-29T00:35:33.952Z,5.0
2017-10-29T00:36:34.802Z,4.2
2017-10-29T00:37:35.529Z,4.7
2017-10-29T00:38:36.263Z,5.0
2017-10-29T00:39:37.000Z,4.8
2017-10-29T00:40:37.727Z,5.2
2017-10-29T00:41:38.568Z,4.5
2017-10-29T00:42:39.291Z,4.8
2017-10-29T00:43:40.026Z,5.0
2017-10-29T00:44:40.813Z,4.8
2017-10-29T00:45:41.606Z,5.3
2017-10-29T00:46:42.793Z,4.5
2017-10-29T00:47:43.521Z,5.0
2017-10-29T00:48:44.266Z,5.0
2017-10-29T00:49:45.066Z,4.5
2017-10-29T00:50:45.781Z,3.8
2017-10-29T00:51:46.506Z,4.2
2017-10-29T00:52:47.249Z,4.6
2017-10-29T00:53:47.978Z,5.1
2017-10-29T00:54:48.788Z,4.2
2017-10-29T00:55:49.528Z,4.9
2017-10-29T00:56:50.433Z,4.2
2017-10-29T00:57:51.151Z,4.1
2017-10-29T00:58:51.883Z,3.9
2017-10-29T00:59:52.682Z,7.2
2017-10-29T01:00:53.420Z,4.1
2017-10-29T01:01:54.150Z,3.6
2017-10-29T01:02:54.873Z,3.9
2017-10-29T01:03:55.676Z,4.1
2017-10-29T01:04:56.404Z,4.3
2017-10-29T01:05:57.222Z,4.2
2017-10-29T01:06:57.950Z,3.4
2017-10-29T01:07:58.777Z,3.9
2017-10-29T01:08:59.563Z,3.4
2017-10-29T01:10:00.299Z,4.1
2017-10-29T01:11:01.063Z,4.1
2017-10-29T01:12:01.785Z,4.1
2017-10-29T01:13:02.954Z,4.5
2017-10-29T01:14:03.687Z,4.2
2017-10-29T01:15:04.482Z,4.1
2017-10-29T01:16:05.226Z,4.9
2017-10-29T01:17:06.019Z,4.6
2017-10-29T01:18:06.785Z,4.4
2017-10-29T01:19:07.617Z,3.8
2017-10-29T01:20:08.354Z,3.9
2017-10-29T01:21:09.073Z,3.5
2017-10-29T01:22:09.816Z,4.2
2017-10-29T01:23:10.601Z,4.0
2017-10-29T01:24:11.380Z,3.8
2017-10-29T01:25:12.106Z,3.7
2017-10-29T01:26:12.832Z,4.4
2017-10-29T01:27:13.562Z,4.8
2017-10-29T01:28:14.291Z,4.9
2017-10-29T01:29:15.133Z,4.2
2017-10-29T01:30:15.932Z,4.6
2017-10-29T01:31:16.658Z,4.8
2017-10-29T01:32:17.400Z,4.5
2017-10-29T01:33:18.213Z,4.9
2017-10-29T01:34:19.041Z,3.9
2017-10-29T01:35:19.777Z,3.7
2017-10-29T01:36:20.573Z,3.3
2017-10-29T01:37:21.393Z,3.2
2017-10-29T01:38:22.164Z,3.1
2017-10-29T01:39:23.022Z,2.5
2017-10-29T01:40:23.792Z,3.4
2017-10-29T01:41:24.514Z,2.8
2017-10-29T01:42:25.233Z,2.6
2017-10-29T01:43:25.952Z,3.0
2017-10-29T01:44:26.684Z,3.0
2017-10-29T01:45:27.412Z,2.7
2017-10-29T01:46:28.218Z,3.0
2017-10-29T01:47:29.032Z,2.8
2017-10-29T01:48:29.752Z,2.7
2017-10-29T01:49:30.473Z,3.1
2017-10-29T01:50:31.262Z,3.3
2017-10-29T01:51:32.282Z,2.3
2017-10-29T01:52:33.012Z,2.7
2017-10-29T01:53:33.760Z,3.1
2017-10-29T01:54:34.491Z,2.6
2017-10-29T01:55:35.211Z,2.5
2017-10-29T01:56:36.014Z,2.6
2017-10-29T01:57:36.755Z,2.8
2017-10-29T01:58:37.658Z,2.3
2017-10-29T01:59:38.453Z,2.9
2017-10-29T02:00:39.175Z,2.4
2017-10-29T02:01:39.916Z,2.2
2017-10-29T02:02:40.697Z,3.0
2017-10-29T02:03:41.766Z,2.9
2017-10-29T02:04:42.493Z,2.3
2017-10-29T02:05:43.222Z,2.5
2017-10-29T02:06:43.949Z,2.1
2017-10-29T02:07:44.672Z,2.4
2017-10-29T02:08:45.497Z,2.2
2017-10-29T02:09:46.272Z,2.9
2017-10-29T02:10:47.019Z,2.9
2017-10-29T02:11:47.787Z,2.3
2017-10-29T02:12:48.519Z,2.2
2017-10-29T02:13:49.354Z,2.6
2017-10-29T02:14:50.159Z,2.8
2017-10-29T02:15:50.882Z,3.0
2017-10-29T02:16:51.682Z,2.7
2017-10-29T02:17:52.411Z,3.0
2017-10-29T02:18:53.241Z,3.6
2017-10-29T02:19:53.965Z,3.1
2017-10-29T02:20:54.692Z,2.4
2017-10-29T02:21:55.416Z,3.1
2017-10-29T02:22:56.167Z,3.0
2017-10-29T02:23:56.958Z,2.9
2017-10-29T02:24:57.741Z,3.0
2017-10-29T02:25:58.470Z,3.1
2017-10-29T02:26:59.316Z,4.1
2017-10-29T02:28:00.102Z,2.8
2017-10-29T02:29:00.873Z,2.8
2017-10-29T02:30:01.602Z,2.9
2017-10-29T02:31:02.333Z,2.4
2017-10-29T02:32:03.187Z,2.2
2017-10-29T02:33:03.970Z,3.0
2017-10-29T02:34:04.702Z,2.9
2017-10-29T02:35:05.429Z,3.2
2017-10-29T02:36:06.152Z,2.7
2017-10-29T02:37:06.936Z,2.5
2017-10-29T02:38:07.738Z,3.2
2017-10-29T02:39:08.546Z,2.3
2017-10-29T02:40:09.341Z,2.4
2017-10-29T02:41:10.064Z,2.8
2017-10-29T02:42:10.839Z,3.3
2017-10-29T02:43:11.571Z,2.6
2017-10-29T02:44:12.302Z,2.6
2017-10-29T02:45:13.043Z,2.2
2017-10-29T02:46:13.824Z,2.4
2017-10-29T02:47:14.601Z,3.8
2017-10-29T02:48:15.402Z,2.3
2017-10-29T02:49:16.212Z,2.7
2017-10-29T02:50:16.961Z,2.3
2017-10-29T02:51:17.686Z,2.7
2017-10-29T02:52:18.511Z,2.9
2017-10-29T02:53:19.246Z,2.7
2017-10-29T02:54:20.018Z,3.0
2017-10-29T02:55:20.802Z,2.7
2017-10-29T02:56:21.534Z,2.7
2017-10-29T02:57:22.561Z,2.8
2017-10-29T02:58:23.280Z,4.1
2017-10-29T02:59:24.022Z,2.3
2017-10-29T03:00:24.818Z,3.3
2017-10-29T03:01:25.593Z,3.0
2017-10-29T03:02:26.441Z,2.6
2017-10-29T03:03:27.165Z,2.5
2017-10-29T03:04:27.892Z,2.9
2017-10-29T03:05:34.881Z,3.5
2017-10-29T03:06:35.598Z,3.4
2017-10-29T03:07:36.378Z,3.0
2017-10-29T03:08:37.173Z,3.0
2017-10-29T03:09:37.891Z,3.0
2017-10-29T03:10:38.679Z,3.0
2017-10-29T03:11:39.417Z,2.9
2017-10-29T03:12:40.506Z,3.0
2017-10-29T03:13:41.288Z,3.4
2017-10-29T03:14:42.019Z,3.2
2017-10-29T03:15:42.746Z,3.3
2017-10-29T03:16:43.535Z,3.0
2017-10-29T03:17:44.618Z,3.2
2017-10-29T03:18:45.344Z,3.2
2017-10-29T03:19:46.072Z,2.8
2017-10-29T03:20:46.789Z,3.3
2017-10-29T03:21:47.520Z,2.8
2017-10-29T03:22:48.548Z,2.6
2017-10-29T03:23:49.282Z,2.9
2017-10-29T03:24:49.999Z,3.5
2017-10-29T03:25:50.718Z,2.8
2017-10-29T03:26:51.446Z,3.1
2017-10-29T03:27:52.339Z,3.2
2017-10-29T03:28:53.089Z,3.3
2017-10-29T03:29:53.816Z,3.9
2017-10-29T03:30:54.519Z,3.6
2017-10-29T03:31:55.243Z,3.7
2017-10-29T03:32:55.966Z,3.7
2017-10-29T03:33:56.704Z,4.3
2017-10-29T03:34:57.505Z,4.5
2017-10-29T03:35:58.319Z,4.4
2017-10-29T03:36:59.058Z,4.2
2017-10-29T03:37:59.853Z,3.2
2017-10-29T03:39:00.588Z,5.0
2017-10-29T03:40:01.363Z,3.6
2017-10-29T03:41:02.097Z,4.3
2017-10-29T03:42:02.895Z,3.9
2017-10-29T03:43:03.695Z,3.4
2017-10-29T03:44:04.499Z,4.2
2017-10-29T03:45:05.512Z,3.4
2017-10-29T03:46:06.236Z,3.9
2017-10-29T03:47:06.960Z,4.1
2017-10-29T03:48:07.763Z,3.3
2017-10-29T03:49:08.497Z,3.9
2017-10-29T03:50:09.332Z,3.9
2017-10-29T03:51:09.989Z,3.6
2017-10-29T03:52:10.712Z,3.3
2017-10-29T03:53:11.515Z,3.5
2017-10-29T03:54:12.317Z,3.3
2017-10-29T03:55:13.069Z,3.2
2017-10-29T03:56:13.804Z,3.5
2017-10-29T03:57:14.700Z,3.1
2017-10-29T03:58:15.505Z,4.6
2017-10-29T03:59:16.229Z,3.8
2017-10-29T04:00:16.964Z,3.8
2017-10-29T04:01:17.748Z,3.2
2017-10-29T04:02:18.469Z,3.3
2017-10-29T04:03:19.188Z,4.1
2017-10-29T04:04:19.926Z,3.3
2017-10-29T04:05:20.661Z,4.3
2017-10-29T04:06:21.431Z,3.9
2017-10-29T04:07:22.554Z,3.3
2017-10-29T04:08:23.267Z,3.5
2017-10-29T04:09:23.983Z,3.8
2017-10-29T04:10:24.754Z,4.1
2017-10-29T04:11:25.540Z,3.6
2017-10-29T04:12:26.256Z,3.3
2017-10-29T04:13:27.043Z,4.3
2017-10-29T04:14:27.828Z,3.3
2017-10-29T04:15:28.696Z,3.6
2017-10-29T04:16:29.501Z,4.1
2017-10-29T04:17:30.269Z,4.0
2017-10-29T04:18:31.044Z,3.3
2017-10-29T04:19:31.771Z,3.3
2017-10-29T04:20:32.549Z,3.3
2017-10-29T04:21:33.336Z,4.0
2017-10-29T04:22:34.072Z,3.1
2017-10-29T04:23:34.801Z,3.1
2017-10-29T04:24:35.537Z,2.7
2017-10-29T04:25:36.305Z,3.3
2017-10-29T04:26:37.128Z,3.2
2017-10-29T04:27:37.861Z,3.5
2017-10-29T04:28:38.583Z,2.5
2017-10-29T04:29:39.312Z,2.3
2017-10-29T04:30:40.043Z,3.7
2017-10-29T04:31:40.882Z,3.4
2017-10-29T04:32:41.614Z,3.0
2017-10-29T04:33:42.403Z,3.3
2017-10-29T04:34:43.178Z,3.3
2017-10-29T04:35:43.914Z,3.1
2017-10-29T04:36:44.729Z,3.0
2017-10-29T04:37:45.448Z,3.1
2017-10-29T04:38:46.181Z,3.7
2017-10-29T04:39:46.914Z,3.0
2017-10-29T04:40:47.711Z,3.1
2017-10-29T04:41:48.498Z,3.4
2017-10-29T04:42:49.228Z,3.0
2017-10-29T04:43:50.002Z,3.8
2017-10-29T04:44:50.733Z,3.7
2017-10-29T04:45:51.456Z,2.9
2017-10-29T04:46:52.583Z,3.7
2017-10-29T04:47:53.306Z,3.0
2017-10-29T04:48:54.026Z,4.4
2017-10-29T04:49:54.781Z,4.7
2017-10-29T04:50:55.513Z,4.4
2017-10-29T04:51:56.237Z,4.2
2017-10-29T04:52:57.123Z,3.8
2017-10-29T04:53:57.858Z,4.5
2017-10-29T04:54:58.589Z,4.5
2017-10-29T04:55:59.349Z,4.7
2017-10-29T04:57:00.085Z,4.7
2017-10-29T04:58:00.849Z,3.4
2017-10-29T04:59:01.573Z,3.8
2017-10-29T05:00:02.289Z,4.2
2017-10-29T05:01:03.009Z,3.9
2017-10-29T05:02:03.741Z,3.6
2017-10-29T05:03:04.910Z,4.5
2017-10-29T05:04:05.698Z,4.7
2017-10-29T05:05:06.416Z,5.0
2017-10-29T05:06:07.138Z,4.8
2017-10-29T05:07:07.852Z,5.4
2017-10-29T05:08:08.754Z,4.9
2017-10-29T05:09:09.539Z,4.3
2017-10-29T05:10:10.269Z,4.0
2017-10-29T05:11:10.999Z,4.4
2017-10-29T05:12:11.763Z,4.9
2017-10-29T05:13:12.543Z,4.4
2017-10-29T05:14:13.258Z,5.6
2017-10-29T05:15:13.975Z,5.0
2017-10-29T05:16:14.696Z,4.5
2017-10-29T05:17:15.413Z,4.7
2017-10-29T05:18:16.237Z,5.6
2017-10-29T05:19:16.998Z,4.7
2017-10-29T05:20:17.726Z,5.4
2017-10-29T05:21:18.392Z,6.0
2017-10-29T05:22:19.109Z,5.0
2017-10-29T05:23:20.228Z,5.2
2017-10-29T05:24:20.940Z,4.7
2017-10-29T05:25:21.693Z,4.8
2017-10-29T05:26:22.424Z,4.9
2017-10-29T05:27:23.268Z,5.7
2017-10-29T05:28:24.388Z,6.4
2017-10-29T05:29:25.118Z,6.2
2017-10-29T05:30:25.853Z,6.8
2017-10-29T05:31:26.587Z,6.6
2017-10-29T05:32:27.329Z,6.5
2017-10-29T05:33:28.210Z,7.5
2017-10-29T05:34:28.956Z,6.1
2017-10-29T05:35:29.743Z,7.0
2017-10-29T05:36:30.505Z,7.6
2017-10-29T05:37:31.224Z,6.1
2017-10-29T05:38:32.048Z,6.4
2017-10-29T05:39:32.803Z,6.7
2017-10-29T05:40:33.562Z,7.4
2017-10-29T05:41:34.352Z,8.0
2017-10-29T05:42:35.078Z,7.7
2017-10-29T05:43:35.798Z,7.1
2017-10-29T05:44:36.520Z,8.5
2017-10-29T05:45:37.347Z,8.1
2017-10-29T05:46:38.060Z,6.7
2017-10-29T05:47:38.780Z,6.8
2017-10-29T05:48:39.502Z,8.2
2017-10-29T05:49:40.303Z,7.4
2017-10-29T05:50:41.128Z,8.1
2017-10-29T05:51:41.877Z,8.8
2017-10-29T05:52:42.673Z,8.4
2017-10-29T05:53:43.468Z,7.1
2017-10-29T05:54:44.224Z,7.3
2017-10-29T05:55:45.024Z,7.8
2017-10-29T05:56:45.744Z,8.1
2017-10-29T05:57:46.465Z,7.2
2017-10-29T05:58:47.192Z,6.4
2017-10-29T05:59:47.941Z,8.7
2017-10-29T06:00:48.802Z,7.9
2017-10-29T06:01:49.523Z,7.8
2017-10-29T06:02:50.252Z,7.6
2017-10-29T06:03:50.990Z,7.1
2017-10-29T06:04:51.735Z,7.9
2017-10-29T06:05:53.168Z,7.9
2017-10-29T06:06:53.951Z,7.1
2017-10-29T06:07:54.676Z,7.8
2017-10-29T06:08:55.481Z,7.7
2017-10-29T06:09:56.242Z,8.0
2017-10-29T06:10:57.080Z,8.0
2017-10-29T06:11:57.861Z,8.0
2017-10-29T06:12:58.665Z,7.3
2017-10-29T06:13:59.450Z,7.8
2017-10-29T06:15:00.194Z,7.5
2017-10-29T06:16:00.969Z,7.2
2017-10-29T06:17:01.745Z,6.6
2017-10-29T06:18:02.465Z,7.7
2017-10-29T06:19:03.192Z,7.0
2017-10-29T06:20:03.939Z,7.7
2017-10-29T06:21:04.749Z,8.9
2017-10-29T06:22:05.544Z,7.1
2017-10-29T06:23:06.345Z,7.8
2017-10-29T06:24:08.177Z,7.1
2017-10-29T06:25:08.843Z,7.3
2017-10-29T06:26:09.571Z,7.5
2017-10-29T06:27:10.303Z,6.9
2017-10-29T06:28:11.037Z,7.7
2017-10-29T06:29:11.882Z,7.5
2017-10-29T06:30:12.622Z,7.3
2017-10-29T06:31:13.353Z,6.5
2017-10-29T06:32:14.084Z,7.4
2017-10-29T06:33:14.857Z,7.1
2017-10-29T06:34:15.663Z,6.8
2017-10-29T06:35:16.455Z,7.5
2017-10-29T06:36:17.234Z,7.3
2017-10-29T06:37:17.961Z,7.0
2017-10-29T06:38:18.747Z,7.2
2017-10-29T06:39:19.478Z,6.3
2017-10-29T06:40:20.213Z,7.3
2017-10-29T06:41:20.942Z,7.5
2017-10-29T06:42:21.685Z,6.2
2017-10-29T06:43:22.458Z,6.9
2017-10-29T06:44:23.188Z,6.5
2017-10-29T06:45:23.916Z,7.5
2017-10-29T06:46:24.689Z,6.7
2017-10-29T06:47:25.419Z,6.2
2017-10-29T06:48:26.498Z,6.9
2017-10-29T06:49:27.293Z,6.1
2017-10-29T06:50:28.058Z,7.6
2017-10-29T06:51:28.866Z,6.9
2017-10-29T06:52:29.623Z,7.2
2017-10-29T06:53:30.351Z,6.5
2017-10-29T06:54:31.068Z,7.1
2017-10-29T06:55:31.899Z,5.7
2017-10-29T06:56:32.644Z,6.3
2017-10-29T06:57:33.382Z,6.0
2017-10-29T06:58:34.161Z,6.5
2017-10-29T06:59:34.881Z,6.5
2017-10-29T07:00:35.671Z,5.9
2017-10-29T07:01:36.400Z,6.8
2017-10-29T07:02:37.198Z,6.3
2017-10-29T07:03:37.990Z,7.2
2017-10-29T07:04:38.722Z,5.5
2017-10-29T07:05:39.515Z,7.9
2017-10-29T07:06:40.293Z,6.0
2017-10-29T07:07:41.019Z,6.7
2017-10-29T07:08:41.752Z,6.2
2017-10-29T07:09:42.542Z,6.7
2017-10-29T07:10:43.363Z,7.2
2017-10-29T07:11:44.095Z,7.5
2017-10-29T07:12:44.832Z,7.4
2017-10-29T07:13:45.555Z,6.7
2017-10-29T07:14:46.377Z,7.3
2017-10-29T07:15:47.178Z,7.9
2017-10-29T07:16:47.975Z,6.7
2017-10-29T07:17:48.711Z,6.5
2017-10-29T07:18:49.485Z,5.5
2017-10-29T07:19:50.225Z,5.6
2017-10-29T07:20:51.003Z,6.2
2017-10-29T07:21:51.736Z,5.9
2017-10-29T07:22:52.457Z,6.7
2017-10-29T07:23:53.180Z,5.7
2017-10-29T07:24:53.978Z,6.1
2017-10-29T07:25:55.099Z,7.3
2017-10-29T07:26:55.823Z,6.4
2017-10-29T07:27:56.546Z,6.2
2017-10-29T07:28:57.269Z,4.9
2017-10-29T07:29:58.017Z,5.0
2017-10-29T07:30:58.849Z,5.6
2017-10-29T07:31:59.641Z,6.1
2017-10-29T07:33:00.444Z,5.1
2017-10-29T07:34:01.241Z,6.4
2017-10-29T07:35:01.974Z,6.2
2017-10-29T07:36:03.106Z,7.6
2017-10-29T07:37:03.908Z,6.4
2017-10-29T07:38:04.628Z,5.9
2017-10-29T07:39:05.364Z,7.1
2017-10-29T07:40:06.084Z,5.9
2017-10-29T07:41:06.863Z,5.6
2017-10-29T07:42:07.589Z,5.8
2017-10-29T07:43:08.320Z,6.4
2017-10-29T07:44:09.062Z,6.4
2017-10-29T07:45:09.861Z,6.9
2017-10-29T07:46:10.955Z,5.6
2017-10-29T07:47:11.728Z,6.3
2017-10-29T07:48:12.440Z,6.5
2017-10-29T07:49:13.237Z,5.6
2017-10-29T07:50:13.959Z,6.4
2017-10-29T07:51:14.786Z,5.8
2017-10-29T07:52:15.512Z,6.2
2017-10-29T07:53:16.312Z,6.1
2017-10-29T07:54:17.046Z,7.0
2017-10-29T07:55:17.803Z,7.5
2017-10-29T07:56:18.572Z,5.8
2017-10-29T07:57:19.389Z,5.9
2017-10-29T07:58:20.111Z,5.9
2017-10-29T07:59:20.900Z,5.6
2017-10-29T08:00:21.633Z,5.6
2017-10-29T08:01:22.536Z,6.2
2017-10-29T08:02:23.338Z,6.6
2017-10-29T08:03:24.062Z,6.9
2017-10-29T08:04:24.788Z,5.8
2017-10-29T08:05:25.544Z,6.6
2017-10-29T08:06:26.424Z,7.2
2017-10-29T08:07:27.218Z,7.1
2017-10-29T08:08:28.011Z,5.9
2017-10-29T08:09:28.804Z,6.3
2017-10-29T08:10:29.533Z,7.4
2017-10-29T08:11:30.306Z,6.1
2017-10-29T08:12:31.090Z,5.5
2017-10-29T08:13:31.813Z,7.2
2017-10-29T08:14:32.544Z,6.2
2017-10-29T08:15:33.345Z,6.8
2017-10-29T08:16:34.769Z,6.5
2017-10-29T08:17:35.508Z,6.5
2017-10-29T08:18:36.233Z,7.5
2017-10-29T08:19:36.945Z,7.3
2017-10-29T08:20:37.695Z,6.9
2017-10-29T08:21:38.517Z,6.6
2017-10-29T08:22:39.340Z,8.7
2017-10-29T08:23:40.118Z,5.9
2017-10-29T08:24:40.855Z,7.0
2017-10-29T08:25:41.581Z,7.5
2017-10-29T08:26:42.430Z,6.8
2017-10-29T08:27:43.160Z,6.1
2017-10-29T08:28:43.959Z,6.4
2017-10-29T08:29:44.702Z,6.2
2017-10-29T08:30:45.442Z,6.0
2017-10-29T08:31:46.175Z,5.5
2017-10-29T08:32:46.950Z,5.9
2017-10-29T08:33:47.807Z,6.2
2017-10-29T08:34:48.562Z,6.0
2017-10-29T08:35:49.290Z,7.4
2017-10-29T08:36:50.010Z,6.9
2017-10-29T08:37:50.744Z,7.9
2017-10-29T08:38:51.816Z,7.2
2017-10-29T08:39:52.540Z,6.1
2017-10-29T08:40:53.272Z,7.0
2017-10-29T08:41:53.991Z,7.0
2017-10-29T08:42:54.802Z,8.0
2017-10-29T08:43:55.626Z,7.5
2017-10-29T08:44:56.349Z,6.7
2017-10-29T08:45:57.085Z,7.2
2017-10-29T08:46:57.827Z,6.6
2017-10-29T08:47:58.630Z,5.8
2017-10-29T08:48:59.669Z,5.7
2017-10-29T08:50:00.393Z,7.6
2017-10-29T08:51:01.200Z,6.9
2017-10-29T08:52:01.954Z,7.2
2017-10-29T08:53:02.684Z,6.8
2017-10-29T08:54:03.515Z,7.1
2017-10-29T08:55:04.247Z,7.5
2017-10-29T08:56:05.034Z,6.6
2017-10-29T08:57:05.842Z,6.4
2017-10-29T08:58:06.573Z,6.5
2017-10-29T08:59:07.364Z,6.1
2017-10-29T09:00:08.175Z,6.9
2017-10-29T09:01:08.943Z,7.5
2017-10-29T09:02:09.674Z,7.2
2017-10-29T09:03:10.491Z,7.0
2017-10-29T09:04:11.292Z,7.0
2017-10-29T09:05:12.069Z,7.7
2017-10-29T09:06:12.782Z,6.7
2017-10-29T09:07:13.513Z,6.6
2017-10-29T09:08:14.239Z,7.2
2017-10-29T09:09:15.672Z,7.2
2017-10-29T09:10:16.400Z,7.6
2017-10-29T09:11:17.136Z,6.5
2017-10-29T09:12:17.910Z,7.8
2017-10-29T09:13:18.629Z,7.3
2017-10-29T09:14:19.413Z,7.4
2017-10-29T09:15:20.150Z,7.3
2017-10-29T09:16:20.938Z,8.0
2017-10-29T09:17:21.660Z,7.8
2017-10-29T09:18:22.465Z,7.3
2017-10-29T09:19:23.363Z,6.8
2017-10-29T09:20:24.092Z,6.7
2017-10-29T09:21:24.822Z,6.5
2017-10-29T09:22:25.548Z,6.0
2017-10-29T09:23:26.288Z,8.3
2017-10-29T09:24:27.360Z,6.7
2017-10-29T09:25:28.079Z,6.9
2017-10-29T09:26:28.798Z,6.5
2017-10-29T09:27:29.530Z,6.8
2017-10-29T09:28:30.256Z,6.2
2017-10-29T09:29:31.433Z,8.3
2017-10-29T09:30:32.151Z,7.4
2017-10-29T09:31:32.886Z,7.7
2017-10-29T09:32:33.627Z,8.4
2017-10-29T09:33:34.288Z,12.6
2017-10-29T09:34:35.130Z,10.3
2017-10-29T09:35:35.869Z,8.6
2017-10-29T09:36:36.667Z,7.8
2017-10-29T09:37:37.484Z,9.1
2017-10-29T09:38:38.208Z,9.5
2017-10-29T09:39:39.035Z,7.5
2017-10-29T09:40:39.778Z,10.9
2017-10-29T09:41:40.509Z,9.5
2017-10-29T09:42:41.239Z,6.5
2017-10-29T09:43:41.982Z,7.1
2017-10-29T09:44:42.824Z,6.9
2017-10-29T09:45:43.548Z,7.3
2017-10-29T09:46:44.283Z,5.8
2017-10-29T09:47:45.014Z,6.5
2017-10-29T09:48:45.780Z,6.3
2017-10-29T09:49:46.624Z,6.7
2017-10-29T09:50:47.349Z,7.2
2017-10-29T09:51:48.146Z,6.8
2017-10-29T09:52:48.914Z,7.5
2017-10-29T09:53:49.643Z,7.7
2017-10-29T09:54:50.524Z,6.7
2017-10-29T09:55:51.329Z,7.7
2017-10-29T09:56:52.052Z,7.1
2017-10-29T09:57:52.775Z,7.0
2017-10-29T09:58:53.553Z,7.1
2017-10-29T09:59:54.328Z,6.4
2017-10-29T10:00:55.064Z,7.3
2017-10-29T10:01:55.872Z,7.8
2017-10-29T10:02:56.619Z,5.7
2017-10-29T10:03:57.354Z,6.8
2017-10-29T10:04:58.182Z,6.3
2017-10-29T10:05:58.917Z,5.6
2017-10-29T10:06:59.643Z,7.0
2017-10-29T10:08:00.361Z,6.3
2017-10-29T10:09:01.079Z,6.7
2017-10-29T10:10:01.858Z,7.8
2017-10-29T10:11:02.616Z,6.4
2017-10-29T10:12:03.393Z,6.5
2017-10-29T10:13:04.124Z,6.6
2017-10-29T10:14:04.861Z,5.9
2017-10-29T10:15:05.925Z,6.0
2017-10-29T10:16:06.724Z,6.4
2017-10-29T10:17:07.460Z,6.9
2017-10-29T10:18:08.219Z,6.1
2017-10-29T10:19:08.960Z,6.5
2017-10-29T10:20:09.771Z,5.7
2017-10-29T10:21:10.504Z,5.6
2017-10-29T10:22:11.233Z,5.6
2017-10-29T10:23:12.025Z,5.0
2017-10-29T10:24:12.780Z,7.0
2017-10-29T10:25:13.644Z,6.0
2017-10-29T10:26:14.373Z,6.6
2017-10-29T10:27:15.112Z,6.8
2017-10-29T10:28:15.840Z,6.2
2017-10-29T10:29:16.658Z,5.2
2017-10-29T10:30:17.493Z,6.2
2017-10-29T10:31:18.233Z,5.6
2017-10-29T10:32:19.033Z,5.6
2017-10-29T10:33:19.771Z,6.5
2017-10-29T10:34:20.580Z,6.1
2017-10-29T10:35:21.401Z,5.5
2017-10-29T10:36:22.318Z,5.1
2017-10-29T10:37:23.118Z,5.7
2017-10-29T10:38:23.898Z,5.7
2017-10-29T10:39:24.630Z,5.7
2017-10-29T10:40:25.474Z,5.2
2017-10-29T10:41:26.223Z,6.1
2017-10-29T10:42:27.025Z,5.0
2017-10-29T10:43:27.824Z,5.9
2017-10-29T10:44:28.657Z,5.0
2017-10-29T10:45:29.558Z,4.0
2017-10-29T10:46:30.324Z,4.8
2017-10-29T10:47:31.122Z,4.7
2017-10-29T10:48:31.857Z,6.2
2017-10-29T10:49:32.662Z,5.2
2017-10-29T10:50:33.498Z,5.6
2017-10-29T10:51:34.228Z,5.2
2017-10-29T10:52:35.028Z,5.2
2017-10-29T10:53:35.762Z,5.5
2017-10-29T10:54:36.573Z,5.3
2017-10-29T10:55:37.362Z,5.8
2017-10-29T10:56:38.093Z,5.3
2017-10-29T10:57:38.819Z,5.6
2017-10-29T10:58:39.566Z,5.1
2017-10-29T10:59:40.350Z,5.0
2017-10-29T11:00:41.190Z,5.8
2017-10-29T11:01:41.997Z,4.9
2017-10-29T11:02:42.802Z,5.7
2017-10-29T11:03:43.540Z,5.9
2017-10-29T11:04:44.287Z,4.9
2017-10-29T11:05:45.062Z,5.2
2017-10-29T11:06:45.810Z,5.5
2017-10-29T11:07:46.589Z,5.3
2017-10-29T11:08:47.319Z,5.1
2017-10-29T11:09:48.088Z,4.9
2017-10-29T11:10:48.844Z,4.9
2017-10-29T11:11:49.639Z,5.3
2017-10-29T11:12:50.374Z,5.7
2017-10-29T11:13:51.078Z,5.0
2017-10-29T11:14:51.816Z,4.5
2017-10-29T11:15:52.588Z,6.2
2017-10-29T11:16:53.270Z,6.5
2017-10-29T11:17:54.023Z,5.6
2017-10-29T11:18:54.825Z,5.3
2017-10-29T11:19:55.557Z,5.7
2017-10-29T11:20:56.347Z,6.0
2017-10-29T11:21:57.083Z,4.8
2017-10-29T11:22:57.813Z,4.3
2017-10-29T11:23:58.537Z,5.8
2017-10-29T11:24:59.290Z,4.7
2017-10-29T11:26:00.531Z,5.0
2017-10-29T11:27:01.258Z,5.0
2017-10-29T11:28:01.985Z,5.1
2017-10-29T11:29:02.724Z,6.1
2017-10-29T11:30:03.527Z,7.3
2017-10-29T11:31:04.577Z,9.0
2017-10-29T11:32:05.365Z,7.2
2017-10-29T11:33:06.172Z,6.3
2017-10-29T11:34:06.953Z,6.4
2017-10-29T11:35:07.736Z,6.1
2017-10-29T11:36:08.918Z,10.0
2017-10-29T11:37:09.662Z,4.9
2017-10-29T11:38:10.395Z,5.2
2017-10-29T11:39:11.181Z,6.2
2017-10-29T11:40:11.908Z,6.3
2017-10-29T11:41:12.934Z,5.0
2017-10-29T11:42:13.657Z,6.5
2017-10-29T11:43:14.393Z,4.6
2017-10-29T11:44:15.130Z,4.7
2017-10-29T11:45:15.850Z,5.5
2017-10-29T11:46:17.028Z,5.2
2017-10-29T11:47:17.785Z,5.3
2017-10-29T11:48:18.574Z,4.4
2017-10-29T11:49:19.424Z,4.9
2017-10-29T11:50:20.145Z,5.1
2017-10-29T11:51:20.931Z,4.7
2017-10-29T11:52:21.659Z,6.0
2017-10-29T11:53:22.388Z,5.1
2017-10-29T11:54:23.133Z,5.7
2017-10-29T11:55:23.854Z,5.3
2017-10-29T11:56:24.599Z,5.6
2017-10-29T11:57:25.334Z,4.3
2017-10-29T11:58:26.066Z,5.0
2017-10-29T11:59:26.807Z,5.0
2017-10-29T12:00:27.638Z,4.9
2017-10-29T12:01:28.375Z,4.8
2017-10-29T12:02:29.111Z,4.4
2017-10-29T12:03:29.859Z,4.9
2017-10-29T12:04:30.663Z,5.0
2017-10-29T12:05:31.439Z,5.2
2017-10-29T12:06:32.184Z,5.4
2017-10-29T12:07:33.018Z,5.7
2017-10-29T12:08:33.775Z,4.5
2017-10-29T12:09:34.559Z,4.6
2017-10-29T12:10:35.680Z,5.1
2017-10-29T12:11:36.495Z,4.1
2017-10-29T12:12:37.369Z,4.1
2017-10-29T12:13:38.138Z,3.6
2017-10-29T12:14:38.920Z,3.9
2017-10-29T12:15:40.003Z,4.2
2017-10-29T12:16:40.728Z,3.9
2017-10-29T12:17:41.778Z,3.8
2017-10-29T12:18:42.455Z,3.7
2017-10-29T12:19:43.175Z,4.2
2017-10-29T12:20:43.936Z,4.4
2017-10-29T12:21:44.642Z,3.5
2017-10-29T12:22:45.381Z,3.6
2017-10-29T12:23:46.124Z,4.3
2017-10-29T12:24:46.853Z,3.4
2017-10-29T12:25:47.658Z,3.1
2017-10-29T12:26:48.422Z,3.4
2017-10-29T12:27:49.163Z,3.5
2017-10-29T12:28:49.866Z,3.3
2017-10-29T12:29:50.573Z,3.5
2017-10-29T12:30:51.401Z,3.7
2017-10-29T12:31:52.222Z,3.5
2017-10-29T12:32:52.983Z,2.7
2017-10-29T12:33:53.705Z,3.1
2017-10-29T12:34:54.412Z,2.9
2017-10-29T12:35:55.305Z,4.4
2017-10-29T12:36:56.028Z,3.2
2017-10-29T12:37:56.748Z,4.4
2017-10-29T12:38:57.473Z,3.4
2017-10-29T12:39:58.200Z,3.4
2017-10-29T12:40:59.384Z,3.6
2017-10-29T12:42:00.175Z,3.7
2017-10-29T12:43:00.996Z,4.5
2017-10-29T12:44:01.792Z,4.7
2017-10-29T12:45:02.529Z,4.7
2017-10-29T12:46:03.329Z,4.5
2017-10-29T12:47:04.064Z,4.4
2017-10-29T12:48:04.801Z,4.8
2017-10-29T12:49:05.571Z,5.0
2017-10-29T12:50:06.324Z,4.3
2017-10-29T12:51:07.102Z,4.3
2017-10-29T12:52:07.895Z,4.0
2017-10-29T12:53:08.624Z,5.2
2017-10-29T12:54:09.427Z,4.3
2017-10-29T12:55:10.224Z,4.4
2017-10-29T12:56:11.114Z,4.3
2017-10-29T12:57:11.854Z,5.1
2017-10-29T12:58:12.569Z,4.9
2017-10-29T12:59:13.293Z,5.0
2017-10-29T13:00:14.025Z,4.9
2017-10-29T13:01:14.859Z,5.4
2017-10-29T13:02:15.614Z,4.5
2017-10-29T13:03:16.403Z,4.6
2017-10-29T13:04:17.130Z,4.8
2017-10-29T13:05:17.878Z,5.5
2017-10-29T13:06:18.660Z,3.9
2017-10-29T13:07:19.457Z,4.4
2017-10-29T13:08:20.223Z,4.2
2017-10-29T13:09:20.952Z,5.7
2017-10-29T13:10:21.693Z,4.3
2017-10-29T13:11:22.421Z,4.1
2017-10-29T13:12:23.234Z,3.8
2017-10-29T13:13:24.053Z,4.4
2017-10-29T13:14:24.784Z,4.7
2017-10-29T13:15:25.596Z,4.3
2017-10-29T13:16:26.333Z,3.6
2017-10-29T13:17:27.064Z,3.5
2017-10-29T13:18:27.838Z,4.8
2017-10-29T13:19:28.610Z,4.3
2017-10-29T13:20:29.400Z,3.7
2017-10-29T13:21:30.136Z,4.6
2017-10-29T13:22:31.375Z,4.3
2017-10-29T13:23:32.111Z,4.3
2017-10-29T13:24:32.832Z,4.2
2017-10-29T13:25:33.651Z,4.2
2017-10-29T13:26:34.420Z,3.7
2017-10-29T13:27:35.199Z,4.7
2017-10-29T13:28:35.920Z,3.9
2017-10-29T13:29:36.734Z,4.0
2017-10-29T13:30:37.451Z,3.9
2017-10-29T13:31:38.179Z,4.1
2017-10-29T13:32:39.362Z,5.7
2017-10-29T13:33:40.155Z,4.6
2017-10-29T13:34:40.946Z,4.5
2017-10-29T13:35:41.707Z,4.5
2017-10-29T13:36:42.429Z,4.7
2017-10-29T13:37:43.213Z,4.9
2017-10-29T13:38:43.948Z,5.2
2017-10-29T13:39:44.776Z,5.1
2017-10-29T13:40:45.583Z,3.8
2017-10-29T13:41:46.312Z,5.2
2017-10-29T13:42:47.389Z,5.0
2017-10-29T13:43:48.129Z,6.0
2017-10-29T13:44:48.921Z,4.9
2017-10-29T13:45:49.649Z,6.1
2017-10-29T13:46:50.378Z,4.5
2017-10-29T13:47:51.915Z,5.1
2017-10-29T13:48:52.710Z,4.9
2017-10-29T13:49:53.525Z,4.2
2017-10-29T13:50:54.342Z,5.0
2017-10-29T13:51:55.120Z,4.6
2017-10-29T13:52:56.030Z,4.8
2017-10-29T13:53:56.758Z,4.2
2017-10-29T13:54:57.550Z,3.8
2017-10-29T13:55:58.280Z,4.9